createdAt,value
2022-08-11T00:01:25.301Z,19.00
2022-08-11T00:03:59.736Z,19.00
2022-08-11T00:06:31.483Z,18.90
2022-08-11T00:08:59.768Z,18.90
2022-08-11T00:11:46.049Z,18.90
2022-08-11T00:14:21.837Z,18.80
2022-08-11T00:17:06.511Z,18.70
2022-08-11T00:20:12.715Z,18.70
2022-08-11T00:22:30.353Z,18.70
2022-08-11T00:25:02.202Z,18.60
2022-08-11T00:27:34.504Z,18.50
2022-08-11T00:30:01.949Z,18.50
2022-08-11T00:32:30.300Z,18.50
2022-08-11T00:35:54.654Z,18.50
2022-08-11T00:37:53.304Z,18.40
2022-08-11T00:40:53.601Z,18.40
2022-08-11T00:43:23.938Z,18.40
2022-08-11T00:46:11.939Z,18.30
2022-08-11T00:49:02.456Z,18.30
2022-08-11T00:51:29.121Z,18.30
2022-08-11T00:54:34.666Z,18.30
2022-08-11T00:57:37.610Z,18.30
2022-08-11T01:00:14.201Z,18.20
2022-08-11T01:02:52.989Z,18.20
2022-08-11T01:05:59.549Z,18.10
2022-08-11T01:09:03.945Z,18.10
2022-08-11T01:12:01.826Z,18.10
2022-08-11T01:14:56.508Z,18.00
2022-08-11T01:18:01.076Z,18.00
2022-08-11T01:20:49.425Z,18.00
2022-08-11T01:23:44.443Z,18.00
2022-08-11T01:26:35.861Z,18.00
2022-08-11T01:29:48.199Z,17.90
2022-08-11T01:32:55.888Z,17.90
2022-08-11T01:36:01.942Z,17.80
2022-08-11T01:39:03.116Z,17.80
2022-08-11T01:42:11.599Z,17.70
2022-08-11T01:44:56.297Z,17.60
2022-08-11T01:47:52.876Z,17.60
2022-08-11T01:50:41.812Z,17.50
2022-08-11T01:53:49.914Z,17.50
2022-08-11T01:56:41.299Z,17.40
2022-08-11T01:59:28.721Z,17.40
2022-08-11T02:01:58.447Z,17.40
2022-08-11T02:04:42.217Z,17.30
2022-08-11T02:07:27.691Z,17.30
2022-08-11T02:11:04.817Z,17.30
2022-08-11T02:13:42.178Z,17.20
2022-08-11T02:16:29.952Z,17.20
2022-08-11T02:22:42.334Z,17.20
2022-08-11T02:25:21.192Z,17.20
2022-08-11T02:28:17.323Z,17.10
2022-08-11T02:32:14.871Z,17.10
2022-08-11T02:34:24.763Z,17.10
2022-08-11T02:37:23.539Z,17.10
2022-08-11T02:40:03.630Z,17.10
2022-08-11T02:42:49.552Z,17.10
2022-08-11T02:45:57.327Z,17.10
2022-08-11T02:48:54.682Z,17.00
2022-08-11T02:51:47.079Z,17.00
2022-08-11T02:54:52.821Z,16.90
2022-08-11T02:57:29.202Z,16.90
2022-08-11T03:00:09.163Z,16.90
2022-08-11T03:03:17.315Z,16.90
2022-08-11T03:06:04.810Z,16.90
2022-08-11T03:09:00.375Z,16.90
2022-08-11T03:11:51.882Z,16.80
2022-08-11T03:14:56.376Z,16.80
2022-08-11T03:17:32.471Z,16.80
2022-08-11T03:20:19.074Z,16.70
2022-08-11T03:22:57.682Z,16.70
2022-08-11T03:25:55.061Z,16.70
2022-08-11T03:28:34.422Z,16.60
2022-08-11T03:31:27.307Z,16.70
2022-08-11T03:34:07.553Z,16.70
2022-08-11T03:37:15.037Z,16.60
2022-08-11T03:40:04.322Z,16.60
2022-08-11T03:42:54.415Z,16.50
2022-08-11T03:45:40.768Z,16.40
2022-08-11T03:48:23.130Z,16.40
2022-08-11T03:51:11.462Z,16.30
2022-08-11T03:54:06.063Z,16.30
2022-08-11T03:57:11.779Z,16.40
2022-08-11T04:00:03.541Z,16.30
2022-08-11T04:02:55.324Z,16.40
2022-08-11T04:05:24.985Z,16.40
2022-08-11T04:08:19.084Z,16.40
2022-08-11T04:11:11.753Z,16.40
2022-08-11T04:14:16.822Z,16.40
2022-08-11T04:16:47.046Z,16.50
2022-08-11T04:19:33.482Z,16.50
2022-08-11T04:22:22.844Z,16.50
2022-08-11T04:25:04.744Z,16.50
2022-08-11T04:28:02.360Z,16.50
2022-08-11T04:30:47.688Z,16.40
2022-08-11T04:33:59.979Z,16.40
2022-08-11T04:37:19.631Z,16.40
2022-08-11T04:40:11.144Z,16.40
2022-08-11T04:43:21.322Z,16.40
2022-08-11T04:46:06.982Z,16.40
2022-08-11T04:49:54.211Z,16.40
2022-08-11T04:53:12.118Z,16.40
2022-08-11T04:56:26.757Z,16.50
2022-08-11T04:59:33.715Z,16.60
2022-08-11T05:02:37.293Z,16.70
2022-08-11T05:05:33.723Z,16.80
2022-08-11T05:08:24.650Z,16.90
2022-08-11T05:11:00.213Z,16.90
2022-08-11T05:13:50.834Z,17.00
2022-08-11T05:16:44.634Z,17.10
2022-08-11T05:19:36.614Z,17.20
2022-08-11T05:22:24.780Z,17.30
2022-08-11T05:26:44.857Z,17.40
2022-08-11T05:28:49.117Z,17.50
2022-08-11T05:31:36.665Z,17.70
2022-08-11T05:34:30.963Z,17.80
2022-08-11T05:37:26.256Z,17.90
2022-08-11T05:40:17.923Z,18.00
2022-08-11T05:43:09.849Z,18.10
2022-08-11T05:46:04.716Z,18.30
2022-08-11T05:48:53.820Z,18.40
2022-08-11T05:51:52.408Z,18.50
2022-08-11T05:54:42.698Z,18.60
2022-08-11T05:57:49.941Z,18.70
2022-08-11T06:00:10.544Z,18.80
2022-08-11T06:02:55.372Z,18.90
2022-08-11T06:05:23.272Z,19.00
2022-08-11T06:07:57.059Z,19.10
2022-08-11T06:10:33.621Z,19.20
2022-08-11T06:13:02.266Z,19.30
2022-08-11T06:15:32.013Z,19.40
2022-08-11T06:18:02.919Z,19.50
2022-08-11T06:20:37.719Z,19.60
2022-08-11T06:23:07.545Z,19.70
2022-08-11T06:25:37.190Z,19.90
2022-08-11T06:28:06.625Z,19.90
2022-08-11T06:30:40.536Z,20.10
2022-08-11T06:33:11.045Z,20.10
2022-08-11T06:36:08.011Z,20.30
2022-08-11T06:38:59.625Z,20.30
2022-08-11T06:41:36.853Z,20.50
2022-08-11T06:44:20.069Z,20.60
2022-08-11T06:46:53.214Z,20.70
2022-08-11T06:49:41.658Z,20.90
2022-08-11T06:52:32.162Z,21.00
2022-08-11T06:55:55.418Z,21.10
2022-08-11T06:58:18.124Z,21.30
2022-08-11T07:00:48.175Z,21.40
2022-08-11T07:03:19.632Z,21.50
2022-08-11T07:05:55.730Z,21.70
2022-08-11T07:08:53.037Z,21.80
2022-08-11T07:12:08.920Z,21.90
2022-08-11T07:15:00.504Z,22.00
2022-08-11T07:17:31.816Z,22.20
2022-08-11T07:20:20.825Z,22.30
2022-08-11T07:23:16.642Z,22.40
2022-08-11T07:26:05.578Z,22.60
2022-08-11T07:28:55.696Z,22.80
2022-08-11T07:31:52.468Z,22.90
2022-08-11T07:34:31.432Z,23.00
2022-08-11T07:37:00.352Z,23.20
2022-08-11T07:39:31.792Z,23.30
2022-08-11T07:41:59.857Z,23.40
2022-08-11T07:44:34.265Z,23.50
2022-08-11T07:47:20.717Z,23.60
2022-08-11T07:50:09.697Z,23.70
2022-08-11T07:52:38.304Z,23.90
2022-08-11T07:55:14.319Z,24.00
2022-08-11T07:58:15.248Z,24.10
2022-08-11T08:01:10.584Z,24.30
2022-08-11T08:04:09.781Z,24.40
2022-08-11T08:06:56.503Z,24.60
2022-08-11T08:09:43.654Z,24.60
2022-08-11T08:12:30.658Z,24.80
2022-08-11T08:15:16.769Z,24.90
2022-08-11T08:18:09.697Z,25.00
2022-08-11T08:20:47.521Z,25.20
2022-08-11T08:23:15.365Z,25.40
2022-08-11T08:25:44.866Z,25.40
2022-08-11T08:28:15.582Z,25.60
2022-08-11T08:30:54.736Z,25.60
2022-08-11T08:33:25.232Z,25.80
2022-08-11T08:36:14.723Z,25.90
2022-08-11T08:38:47.274Z,26.00
2022-08-11T08:41:23.809Z,26.10
2022-08-11T08:44:02.592Z,26.20
2022-08-11T08:46:46.360Z,26.40
2022-08-11T08:49:19.431Z,26.50
2022-08-11T08:52:00.949Z,26.50
2022-08-11T08:54:42.648Z,26.60
2022-08-11T08:57:12.065Z,26.80
2022-08-11T08:59:49.122Z,26.90
2022-08-11T09:02:20.543Z,27.00
2022-08-11T09:05:04.747Z,27.10
2022-08-11T09:07:38.622Z,27.20
2022-08-11T09:10:08.023Z,27.30
2022-08-11T09:12:38.365Z,27.40
2022-08-11T09:15:08.240Z,27.50
2022-08-11T09:17:51.679Z,27.50
2022-08-11T09:20:25.920Z,27.60
2022-08-11T09:24:06.659Z,27.70
2022-08-11T09:26:22.356Z,27.80
2022-08-11T09:28:59.418Z,27.90
2022-08-11T09:31:30.269Z,28.00
2022-08-11T09:33:57.954Z,28.10
2022-08-11T09:36:43.856Z,28.10
2022-08-11T09:39:31.406Z,28.20
2022-08-11T09:42:04.366Z,28.30
2022-08-11T09:44:50.513Z,28.40
2022-08-11T09:47:23.873Z,28.40
2022-08-11T09:49:59.740Z,28.50
2022-08-11T09:52:27.017Z,28.60
2022-08-11T09:54:55.090Z,28.60
2022-08-11T09:57:41.364Z,28.70
2022-08-11T10:00:14.228Z,28.70
2022-08-11T10:02:48.352Z,28.70
2022-08-11T10:05:38.106Z,28.80
2022-08-11T10:08:07.657Z,28.90
2022-08-11T10:10:39.565Z,29.00
2022-08-11T10:14:30.448Z,29.10
2022-08-11T10:16:15.826Z,29.10
2022-08-11T10:18:51.499Z,29.20
2022-08-11T10:21:25.076Z,29.10
2022-08-11T10:24:11.833Z,29.10
2022-08-11T10:26:51.034Z,29.10
2022-08-11T10:29:44.605Z,29.10
2022-08-11T10:32:46.403Z,29.10
2022-08-11T10:35:27.193Z,29.20
2022-08-11T10:38:06.171Z,29.30
2022-08-11T10:40:40.561Z,29.30
2022-08-11T10:43:13.383Z,29.40
2022-08-11T10:46:03.978Z,29.40
2022-08-11T10:48:38.010Z,29.50
2022-08-11T10:51:24.561Z,29.50
2022-08-11T10:54:23.879Z,29.40
2022-08-11T10:57:09.431Z,29.50
2022-08-11T10:59:36.327Z,29.70
2022-08-11T11:02:03.349Z,29.90
2022-08-11T11:04:53.372Z,29.90
2022-08-11T11:07:29.592Z,30.00
2022-08-11T11:10:02.082Z,30.10
2022-08-11T11:13:04.204Z,30.20
2022-08-11T11:15:59.365Z,30.30
2022-08-11T11:18:29.760Z,30.40
2022-08-11T11:21:04.379Z,30.50
2022-08-11T11:23:41.817Z,30.60
2022-08-11T11:26:27.110Z,30.60
2022-08-11T11:29:24.817Z,30.70
2022-08-11T11:32:15.428Z,30.70
2022-08-11T11:34:54.171Z,30.70
2022-08-11T11:37:23.840Z,30.70
2022-08-11T11:39:51.399Z,30.80
2022-08-11T11:42:18.965Z,30.80
2022-08-11T11:44:47.981Z,30.80
2022-08-11T11:47:21.753Z,30.80
2022-08-11T11:49:49.637Z,30.80
2022-08-11T11:52:19.649Z,30.80
2022-08-11T11:54:50.331Z,30.90
2022-08-11T11:57:38.131Z,30.90
2022-08-11T12:00:33.401Z,30.90
2022-08-11T12:03:05.129Z,31.00
2022-08-11T12:05:35.577Z,31.00
2022-08-11T12:08:18.658Z,31.10
2022-08-11T12:11:13.184Z,31.00
2022-08-11T12:13:41.760Z,31.00
2022-08-11T12:16:33.834Z,31.10
2022-08-11T12:19:01.297Z,31.20
2022-08-11T12:21:29.587Z,31.10
2022-08-11T12:24:17.719Z,31.10
2022-08-11T12:27:15.751Z,31.20
2022-08-11T12:29:50.080Z,31.30
2022-08-11T12:32:23.154Z,31.40
2022-08-11T12:34:54.330Z,31.40
2022-08-11T12:37:29.491Z,31.40
2022-08-11T12:40:42.728Z,31.50
2022-08-11T12:43:39.522Z,31.50
2022-08-11T12:46:12.912Z,31.50
2022-08-11T12:49:05.683Z,31.50
2022-08-11T12:52:11.189Z,31.50
2022-08-11T12:55:02.696Z,31.60
2022-08-11T12:57:55.539Z,31.70
2022-08-11T13:00:42.786Z,31.60
2022-08-11T13:03:30.694Z,31.70
2022-08-11T13:06:00.834Z,31.80
2022-08-11T13:08:29.569Z,31.90
2022-08-11T13:11:17.728Z,31.90
2022-08-11T13:13:55.270Z,32.00
2022-08-11T13:16:28.588Z,32.00
2022-08-11T13:18:57.787Z,32.10
2022-08-11T13:21:26.067Z,32.10
2022-08-11T13:24:01.233Z,32.10
2022-08-11T13:26:48.335Z,32.10
2022-08-11T13:29:26.762Z,32.10
2022-08-11T13:31:56.621Z,32.20
2022-08-11T13:34:26.794Z,32.20
2022-08-11T13:36:56.932Z,32.30
2022-08-11T13:39:26.930Z,32.30
2022-08-11T13:41:56.448Z,32.20
2022-08-11T13:44:30.277Z,32.30
2022-08-11T13:47:04.845Z,32.30
2022-08-11T13:49:34.925Z,32.40
2022-08-11T13:52:02.778Z,32.50
2022-08-11T13:54:32.395Z,32.60
2022-08-11T13:57:13.611Z,32.80
2022-08-11T14:00:09.727Z,32.90
2022-08-11T14:02:45.556Z,33.00
2022-08-11T14:05:18.230Z,33.10
2022-08-11T14:07:52.960Z,33.30
2022-08-11T14:10:23.171Z,33.30
2022-08-11T14:13:19.841Z,33.10
2022-08-11T14:15:50.030Z,32.80
2022-08-11T14:18:21.750Z,32.50
2022-08-11T14:21:18.665Z,32.20
2022-08-11T14:23:55.059Z,31.90
2022-08-11T14:26:29.231Z,31.70
2022-08-11T14:29:05.348Z,31.70
2022-08-11T14:31:35.650Z,31.70
2022-08-11T14:34:06.454Z,31.60
2022-08-11T14:36:38.996Z,31.70
2022-08-11T14:39:13.482Z,31.50
2022-08-11T14:42:10.512Z,31.30
2022-08-11T14:45:06.722Z,31.30
2022-08-11T14:47:35.905Z,31.20
2022-08-11T14:50:12.722Z,31.30
2022-08-11T14:53:01.040Z,31.40
2022-08-11T14:55:49.190Z,31.50
2022-08-11T14:58:21.261Z,31.50
2022-08-11T15:00:55.332Z,31.90
2022-08-11T15:03:30.713Z,33.70
2022-08-11T15:06:03.819Z,35.40
2022-08-11T15:08:52.155Z,36.60
2022-08-11T15:11:40.308Z,37.30
2022-08-11T15:14:09.810Z,38.00
2022-08-11T15:17:02.542Z,38.60
2022-08-11T15:20:00.431Z,39.10
2022-08-11T15:22:48.772Z,39.10
2022-08-11T15:25:16.225Z,39.10
2022-08-11T15:28:04.100Z,39.70
2022-08-11T15:30:50.160Z,39.90
2022-08-11T15:33:41.254Z,40.20
2022-08-11T15:36:29.081Z,40.70
2022-08-11T15:39:00.134Z,41.20
2022-08-11T15:42:09.627Z,42.00
2022-08-11T15:45:03.474Z,42.40
2022-08-11T15:47:39.303Z,42.70
2022-08-11T15:50:14.768Z,42.90
2022-08-11T15:52:49.691Z,43.00
2022-08-11T15:55:17.326Z,43.10
2022-08-11T15:58:06.134Z,43.50
2022-08-11T16:00:58.979Z,43.60
2022-08-11T16:04:07.510Z,44.10
2022-08-11T16:06:38.965Z,44.70
2022-08-11T16:09:18.581Z,45.00
2022-08-11T16:11:47.544Z,45.50
2022-08-11T16:14:35.363Z,45.40
2022-08-11T16:17:04.535Z,45.30
2022-08-11T16:19:36.581Z,45.80
2022-08-11T16:22:08.633Z,46.50
2022-08-11T16:26:30.653Z,46.50
2022-08-11T16:27:27.772Z,46.60
2022-08-11T16:29:57.436Z,46.60
2022-08-11T16:32:25.960Z,46.50
2022-08-11T16:35:16.774Z,46.40
2022-08-11T16:38:04.364Z,46.00
2022-08-11T16:40:32.398Z,45.90
2022-08-11T16:43:19.601Z,45.90
2022-08-11T16:46:07.931Z,45.50
2022-08-11T16:48:38.823Z,45.10
2022-08-11T16:51:09.749Z,44.80
2022-08-11T16:53:59.739Z,44.60
2022-08-11T16:56:43.476Z,44.80
2022-08-11T16:59:26.334Z,43.90
2022-08-11T17:01:58.506Z,43.00
2022-08-11T17:05:00.389Z,41.30
2022-08-11T17:07:47.976Z,39.20
2022-08-11T17:11:22.908Z,37.60
2022-08-11T17:13:58.442Z,37.30
2022-08-11T17:16:36.746Z,37.10
2022-08-11T17:20:38.771Z,36.80
2022-08-11T17:22:32.816Z,36.40
2022-08-11T17:25:01.115Z,36.80
2022-08-11T17:27:29.741Z,37.10
2022-08-11T17:29:59.397Z,37.60
2022-08-11T17:33:20.935Z,38.40
2022-08-11T17:35:48.941Z,39.20
2022-08-11T17:38:21.799Z,39.80
2022-08-11T17:41:18.459Z,39.90
2022-08-11T17:44:10.098Z,39.90
2022-08-11T17:47:01.077Z,39.90
2022-08-11T17:49:37.897Z,40.20
2022-08-11T17:52:25.803Z,40.10
2022-08-11T17:55:13.782Z,40.00
2022-08-11T17:58:00.433Z,39.90
2022-08-11T18:00:27.838Z,39.60
2022-08-11T18:03:14.499Z,39.40
2022-08-11T18:05:45.943Z,39.20
2022-08-11T18:08:32.584Z,38.90
2022-08-11T18:12:06.143Z,38.50
2022-08-11T18:14:27.581Z,38.20
2022-08-11T18:17:13.011Z,37.80
2022-08-11T18:19:58.673Z,37.40
2022-08-11T18:22:48.633Z,37.10
2022-08-11T18:25:45.321Z,36.60
2022-08-11T18:28:33.337Z,36.20
2022-08-11T18:31:21.124Z,35.60
2022-08-11T18:34:17.777Z,35.10
2022-08-11T18:37:29.444Z,34.50
2022-08-11T18:40:33.233Z,33.70
2022-08-11T18:43:27.176Z,32.50
2022-08-11T18:46:20.091Z,31.30
2022-08-11T18:49:15.386Z,29.90
2022-08-11T18:52:05.713Z,28.60
2022-08-11T18:54:54.979Z,27.60
2022-08-11T18:57:49.851Z,26.90
2022-08-11T19:00:40.815Z,26.40
2022-08-11T19:03:29.571Z,26.00
2022-08-11T19:06:38.551Z,25.70
2022-08-11T19:09:28.385Z,25.40
2022-08-11T19:12:15.530Z,25.20
2022-08-11T19:15:10.855Z,25.00
2022-08-11T19:18:01.092Z,24.80
2022-08-11T19:20:49.253Z,24.60
2022-08-11T19:23:44.012Z,24.40
2022-08-11T19:26:29.583Z,24.30
2022-08-11T19:30:07.851Z,24.10
2022-08-11T19:32:22.312Z,24.00
2022-08-11T19:35:09.009Z,23.80
2022-08-11T19:37:55.251Z,23.70
2022-08-11T19:40:41.013Z,23.60
2022-08-11T19:43:30.517Z,23.40
2022-08-11T19:46:18.460Z,23.40
2022-08-11T19:49:18.419Z,23.30
2022-08-11T19:52:04.557Z,23.10
2022-08-11T19:54:53.829Z,23.00
2022-08-11T19:57:40.875Z,23.00
2022-08-11T20:00:41.250Z,22.80
2022-08-11T20:03:30.053Z,22.80
2022-08-11T20:06:20.897Z,22.70
2022-08-11T20:09:08.689Z,22.60
2022-08-11T20:12:07.007Z,22.50
2022-08-11T20:14:55.516Z,22.40
2022-08-11T20:17:45.135Z,22.40
2022-08-11T20:20:32.708Z,22.30
2022-08-11T20:23:23.156Z,22.20
2022-08-11T20:26:29.809Z,22.20
2022-08-11T20:29:17.710Z,22.10
2022-08-11T20:32:06.494Z,22.00
2022-08-11T20:34:56.771Z,22.00
2022-08-11T20:37:48.866Z,21.90
2022-08-11T20:40:39.105Z,21.80
2022-08-11T20:44:08.455Z,21.80
2022-08-11T20:46:33.396Z,21.70
2022-08-11T20:49:22.052Z,21.70
2022-08-11T20:52:11.168Z,21.60
2022-08-11T20:55:00.675Z,21.60
2022-08-11T20:58:03.982Z,21.60
2022-08-11T21:00:54.034Z,21.50
2022-08-11T21:03:44.869Z,21.50
2022-08-11T21:06:40.385Z,21.60
2022-08-11T21:09:58.292Z,21.60
2022-08-11T21:12:35.926Z,21.70
2022-08-11T21:15:47.285Z,21.80
2022-08-11T21:18:30.537Z,21.90
2022-08-11T21:21:20.359Z,22.10
2022-08-11T21:24:09.428Z,22.10
2022-08-11T21:27:03.724Z,22.10
2022-08-11T21:29:53.085Z,22.20
2022-08-11T21:32:40.064Z,22.30
2022-08-11T21:35:28.553Z,22.30
2022-08-11T21:38:16.179Z,22.30
2022-08-11T21:41:02.509Z,22.30
2022-08-11T21:43:51.129Z,22.30
2022-08-11T21:46:41.450Z,22.30
2022-08-11T21:49:29.695Z,22.30
2022-08-11T21:52:15.201Z,22.30
2022-08-11T21:55:02.202Z,22.20
2022-08-11T21:57:50.240Z,22.20
2022-08-11T22:00:37.229Z,22.10
2022-08-11T22:03:23.872Z,22.00
2022-08-11T22:06:12.204Z,22.00
2022-08-11T22:08:58.364Z,21.90
2022-08-11T22:11:43.920Z,21.80
2022-08-11T22:14:29.405Z,21.80
2022-08-11T22:17:14.802Z,21.70
2022-08-11T22:20:01.144Z,21.70
2022-08-11T22:22:51.895Z,21.70
2022-08-11T22:25:50.961Z,21.60
2022-08-11T22:28:37.114Z,21.60
2022-08-11T22:31:24.588Z,21.60
2022-08-11T22:34:10.069Z,21.50
2022-08-11T22:36:55.961Z,21.50
2022-08-11T22:39:42.692Z,21.40
2022-08-11T22:42:32.998Z,21.40
2022-08-11T22:45:19.007Z,21.30
2022-08-11T22:48:07.112Z,21.30
2022-08-11T22:50:54.953Z,21.30
2022-08-11T22:53:58.168Z,21.20
2022-08-11T22:56:46.167Z,21.20
2022-08-11T22:59:33.210Z,21.10
2022-08-11T23:02:18.611Z,21.10
2022-08-11T23:05:04.685Z,21.10
2022-08-11T23:07:52.098Z,21.00
2022-08-11T23:10:39.718Z,21.00
2022-08-11T23:13:27.407Z,20.90
2022-08-11T23:16:16.639Z,20.90
2022-08-11T23:19:02.777Z,20.90
2022-08-11T23:21:50.310Z,20.80
2022-08-11T23:24:36.661Z,20.80
2022-08-11T23:27:23.509Z,20.70
2022-08-11T23:30:11.690Z,20.70
2022-08-11T23:32:57.957Z,20.60
2022-08-11T23:35:53.755Z,20.60
2022-08-11T23:38:42.363Z,20.50
2022-08-11T23:41:28.118Z,20.40
2022-08-11T23:44:13.689Z,20.40
2022-08-11T23:47:00.361Z,20.30
2022-08-11T23:49:47.258Z,20.30
2022-08-11T23:52:34.118Z,20.20
2022-08-11T23:55:20.509Z,20.20
2022-08-11T23:58:05.826Z,20.10
